createdAt,value
2022-07-29T00:01:53.534Z,98545.66
2022-07-29T00:04:21.511Z,98543.38
2022-07-29T00:06:48.558Z,98536.22
2022-07-29T00:09:15.406Z,98538.47
2022-07-29T00:11:42.136Z,98533.88
2022-07-29T00:14:09.491Z,98531.13
2022-07-29T00:16:36.532Z,98524.19
2022-07-29T00:19:03.536Z,98518.88
2022-07-29T00:21:30.413Z,98521.66
2022-07-29T00:23:56.999Z,98519.41
2022-07-29T00:26:23.543Z,98508.53
2022-07-29T00:28:50.086Z,98516.59
2022-07-29T00:31:16.607Z,98513.13
2022-07-29T00:33:43.199Z,98511.19
2022-07-29T00:36:09.913Z,98507.69
2022-07-29T00:38:36.728Z,98506.06
2022-07-29T00:41:03.477Z,98501.91
2022-07-29T00:43:29.974Z,98497.66
2022-07-29T00:45:56.738Z,98497.13
2022-07-29T00:48:23.472Z,98494.69
2022-07-29T00:50:51.198Z,98493.84
2022-07-29T00:53:18.003Z,98498.41
2022-07-29T00:55:44.639Z,98495.19
2022-07-29T00:58:14.347Z,98497.09
2022-07-29T01:00:43.313Z,98498.16
2022-07-29T01:03:12.194Z,98507.81
2022-07-29T01:05:50.327Z,98491.03
2022-07-29T01:08:18.949Z,98494.53
2022-07-29T01:10:47.145Z,98483.75
2022-07-29T01:13:15.799Z,98483.41
2022-07-29T01:15:53.434Z,98474.28
2022-07-29T01:18:29.546Z,98477.53
2022-07-29T01:21:30.802Z,98472.94
2022-07-29T01:24:12.301Z,98483.13
2022-07-29T01:26:50.238Z,98472.38
2022-07-29T01:29:26.026Z,98477.25
2022-07-29T01:32:28.939Z,98466.94
2022-07-29T01:34:59.211Z,98467.06
2022-07-29T01:38:04.837Z,98472.59
2022-07-29T01:40:46.120Z,98453.88
2022-07-29T01:43:17.301Z,98463.91
2022-07-29T01:45:51.906Z,98458.47
2022-07-29T01:48:32.684Z,98457.53
2022-07-29T01:51:20.364Z,98462.06
2022-07-29T01:54:08.375Z,98453.94
2022-07-29T01:56:37.532Z,98443.34
2022-07-29T01:59:07.501Z,98452.94
2022-07-29T02:01:36.006Z,98444.94
2022-07-29T02:04:08.025Z,98455.31
2022-07-29T02:06:37.544Z,98453.50
2022-07-29T02:09:05.549Z,98453.00
2022-07-29T02:11:37.025Z,98454.22
2022-07-29T02:14:05.186Z,98458.91
2022-07-29T02:16:34.562Z,98468.34
2022-07-29T02:19:03.349Z,98466.28
2022-07-29T02:21:32.995Z,98464.09
2022-07-29T02:24:03.160Z,98454.13
2022-07-29T02:26:33.142Z,98450.25
2022-07-29T02:29:01.238Z,98449.84
2022-07-29T02:31:33.522Z,98444.25
2022-07-29T02:34:02.958Z,98451.28
2022-07-29T02:36:32.501Z,98438.09
2022-07-29T02:39:01.806Z,98428.22
2022-07-29T02:41:45.951Z,98433.22
2022-07-29T02:44:15.986Z,98443.78
2022-07-29T02:47:00.083Z,98441.69
2022-07-29T02:49:48.819Z,98431.22
2022-07-29T02:52:30.126Z,98438.69
2022-07-29T02:55:03.306Z,98444.69
2022-07-29T02:57:54.996Z,98440.91
2022-07-29T03:00:24.841Z,98443.66
2022-07-29T03:02:54.881Z,98435.69
2022-07-29T03:05:22.328Z,98438.09
2022-07-29T03:08:10.799Z,98430.31
2022-07-29T03:10:39.877Z,98442.81
2022-07-29T03:13:08.871Z,98441.22
2022-07-29T03:15:36.019Z,98442.47
2022-07-29T03:18:03.473Z,98445.09
2022-07-29T03:20:30.404Z,98440.84
2022-07-29T03:22:56.890Z,98438.28
2022-07-29T03:25:23.596Z,98433.06
2022-07-29T03:27:50.143Z,98434.00
2022-07-29T03:30:21.583Z,98435.56
2022-07-29T03:32:52.173Z,98439.41
2022-07-29T03:35:20.417Z,98439.88
2022-07-29T03:37:47.562Z,98441.78
2022-07-29T03:40:21.026Z,98443.53
2022-07-29T03:42:49.356Z,98436.38
2022-07-29T03:45:19.216Z,98439.41
2022-07-29T03:47:57.088Z,98445.09
2022-07-29T03:50:27.039Z,98444.31
2022-07-29T03:52:53.855Z,98440.06
2022-07-29T03:55:20.865Z,98433.72
2022-07-29T03:57:48.928Z,98435.97
2022-07-29T04:00:16.977Z,98432.13
2022-07-29T04:02:49.995Z,98444.03
2022-07-29T04:05:17.847Z,98437.69
2022-07-29T04:07:46.200Z,98438.34
2022-07-29T04:10:13.057Z,98439.38
2022-07-29T04:12:39.870Z,98437.97
2022-07-29T04:15:07.143Z,98443.03
2022-07-29T04:17:33.829Z,98442.84
2022-07-29T04:20:00.537Z,98440.97
2022-07-29T04:22:27.182Z,98445.56
2022-07-29T04:24:54.207Z,98443.97
2022-07-29T04:27:21.117Z,98451.00
2022-07-29T04:29:56.371Z,98450.94
2022-07-29T04:32:23.800Z,98444.13
2022-07-29T04:34:50.355Z,98444.50
2022-07-29T04:37:16.936Z,98440.63
2022-07-29T04:39:43.600Z,98437.69
2022-07-29T04:42:10.344Z,98439.13
2022-07-29T04:44:37.200Z,98433.50
2022-07-29T04:47:09.145Z,98424.34
2022-07-29T04:49:35.716Z,98422.53
2022-07-29T04:52:02.248Z,98424.34
2022-07-29T04:54:28.773Z,98420.28
2022-07-29T04:56:55.431Z,98414.50
2022-07-29T04:59:21.895Z,98429.34
2022-07-29T05:01:48.552Z,98430.06
2022-07-29T05:04:15.250Z,98437.06
2022-07-29T05:06:41.978Z,98430.34
2022-07-29T05:09:08.652Z,98433.69
2022-07-29T05:11:35.178Z,98443.00
2022-07-29T05:14:01.706Z,98446.16
2022-07-29T05:16:28.862Z,98444.53
2022-07-29T05:18:55.338Z,98450.47
2022-07-29T05:21:22.056Z,98453.53
2022-07-29T05:23:48.694Z,98443.38
2022-07-29T05:26:15.382Z,98446.34
2022-07-29T05:28:41.981Z,98439.72
2022-07-29T05:31:08.595Z,98446.59
2022-07-29T05:33:37.038Z,98440.50
2022-07-29T05:36:07.893Z,98439.38
2022-07-29T05:38:36.751Z,98439.31
2022-07-29T05:41:04.459Z,98441.78
2022-07-29T05:43:31.604Z,98452.97
2022-07-29T05:45:58.874Z,98456.78
2022-07-29T05:48:25.907Z,98457.63
2022-07-29T05:50:52.643Z,98453.19
2022-07-29T05:53:20.501Z,98449.94
2022-07-29T05:55:49.058Z,98441.75
2022-07-29T05:58:15.805Z,98440.56
2022-07-29T06:00:42.547Z,98451.22
2022-07-29T06:03:09.103Z,98449.00
2022-07-29T06:05:35.695Z,98451.22
2022-07-29T06:08:02.611Z,98440.34
2022-07-29T06:10:29.282Z,98449.44
2022-07-29T06:12:55.890Z,98442.84
2022-07-29T06:15:22.464Z,98441.53
2022-07-29T06:18:00.190Z,98429.53
2022-07-29T06:20:30.862Z,98435.44
2022-07-29T06:22:58.313Z,98426.84
2022-07-29T06:25:24.815Z,98429.41
2022-07-29T06:27:51.399Z,98439.50
2022-07-29T06:30:18.246Z,98440.06
2022-07-29T06:32:44.934Z,98447.41
2022-07-29T06:35:38.453Z,98446.28
2022-07-29T06:37:59.866Z,98438.91
2022-07-29T06:40:45.626Z,98433.47
2022-07-29T06:43:12.383Z,98433.94
2022-07-29T06:45:42.499Z,98442.00
2022-07-29T06:48:10.030Z,98435.19
2022-07-29T06:50:36.674Z,98442.84
2022-07-29T06:53:03.780Z,98439.56
2022-07-29T06:55:30.325Z,98439.25
2022-07-29T06:57:56.826Z,98441.56
2022-07-29T07:00:23.400Z,98439.84
2022-07-29T07:02:50.024Z,98437.16
2022-07-29T07:05:16.630Z,98442.22
2022-07-29T07:07:43.141Z,98439.19
2022-07-29T07:10:09.910Z,98430.34
2022-07-29T07:12:36.436Z,98431.38
2022-07-29T07:15:04.134Z,98433.78
2022-07-29T07:17:30.617Z,98435.00
2022-07-29T07:19:57.196Z,98430.56
2022-07-29T07:22:23.670Z,98433.84
2022-07-29T07:24:50.150Z,98421.81
2022-07-29T07:27:16.646Z,98428.66
2022-07-29T07:29:44.211Z,98424.78
2022-07-29T07:32:11.114Z,98418.38
2022-07-29T07:34:39.042Z,98422.94
2022-07-29T07:37:06.654Z,98418.44
2022-07-29T07:39:33.343Z,98417.88
2022-07-29T07:42:00.057Z,98422.41
2022-07-29T07:44:26.714Z,98420.81
2022-07-29T07:46:53.512Z,98418.34
2022-07-29T07:49:21.337Z,98420.72
2022-07-29T07:51:50.792Z,98424.22
2022-07-29T07:54:20.695Z,98429.31
2022-07-29T07:56:50.819Z,98423.53
2022-07-29T07:59:19.890Z,98426.06
2022-07-29T08:01:47.652Z,98437.63
2022-07-29T08:04:27.318Z,98436.69
2022-07-29T08:06:57.946Z,98438.63
2022-07-29T08:09:29.814Z,98434.63
2022-07-29T08:11:58.618Z,98429.31
2022-07-29T08:14:25.131Z,98433.31
2022-07-29T08:16:52.370Z,98421.47
2022-07-29T08:19:19.294Z,98435.78
2022-07-29T08:21:46.219Z,98424.75
2022-07-29T08:24:31.638Z,98425.41
2022-07-29T08:26:58.246Z,98427.72
2022-07-29T08:29:24.779Z,98421.09
2022-07-29T08:31:51.531Z,98420.22
2022-07-29T08:34:18.173Z,98431.59
2022-07-29T08:36:44.736Z,98425.22
2022-07-29T08:39:16.728Z,98429.50
2022-07-29T08:41:56.807Z,98425.34
2022-07-29T08:44:30.721Z,98418.56
2022-07-29T08:46:58.050Z,98411.09
2022-07-29T08:49:24.713Z,98422.16
2022-07-29T08:51:52.491Z,98412.63
2022-07-29T08:54:19.692Z,98411.09
2022-07-29T08:56:50.674Z,98414.28
2022-07-29T08:59:21.865Z,98404.81
2022-07-29T09:01:53.992Z,98404.41
2022-07-29T09:04:21.580Z,98397.91
2022-07-29T09:06:52.403Z,98401.91
2022-07-29T09:09:19.153Z,98392.22
2022-07-29T09:11:45.816Z,98395.66
2022-07-29T09:14:14.444Z,98391.47
2022-07-29T09:16:53.416Z,98391.16
2022-07-29T09:19:22.647Z,98392.47
2022-07-29T09:22:03.363Z,98387.19
2022-07-29T09:24:36.227Z,98387.75
2022-07-29T09:27:03.235Z,98381.97
2022-07-29T09:29:33.304Z,98376.84
2022-07-29T09:32:09.199Z,98369.34
2022-07-29T09:34:35.773Z,98365.22
2022-07-29T09:37:03.115Z,98358.00
2022-07-29T09:39:45.274Z,98355.59
2022-07-29T09:42:13.287Z,98353.72
2022-07-29T09:44:46.874Z,98357.72
2022-07-29T09:47:13.712Z,98349.22
2022-07-29T09:49:54.963Z,98358.13
2022-07-29T09:52:22.533Z,98357.72
2022-07-29T09:54:49.104Z,98360.50
2022-07-29T09:57:31.240Z,98357.66
2022-07-29T10:00:16.334Z,98365.09
2022-07-29T10:02:47.269Z,98359.13
2022-07-29T10:05:25.928Z,98362.53
2022-07-29T10:07:57.905Z,98344.16
2022-07-29T10:10:29.615Z,98348.59
2022-07-29T10:13:01.863Z,98346.81
2022-07-29T10:15:38.202Z,98346.88
2022-07-29T10:18:05.254Z,98345.00
2022-07-29T10:20:32.001Z,98334.09
2022-07-29T10:22:58.812Z,98340.03
2022-07-29T10:25:26.120Z,98327.19
2022-07-29T10:27:53.364Z,98335.09
2022-07-29T10:30:21.899Z,98333.94
2022-07-29T10:33:12.724Z,98330.00
2022-07-29T10:36:03.068Z,98320.69
2022-07-29T10:39:07.340Z,98322.72
2022-07-29T10:41:56.387Z,98328.66
2022-07-29T10:44:26.109Z,98325.00
2022-07-29T10:46:54.681Z,98327.63
2022-07-29T10:49:31.133Z,98327.13
2022-07-29T10:51:58.445Z,98321.31
2022-07-29T10:54:34.331Z,98323.59
2022-07-29T10:57:25.605Z,98316.66
2022-07-29T11:00:16.881Z,98321.09
2022-07-29T11:02:45.671Z,98319.38
2022-07-29T11:05:15.769Z,98314.72
2022-07-29T11:08:20.341Z,98315.88
2022-07-29T11:11:12.548Z,98310.97
2022-07-29T11:13:49.236Z,98309.50
2022-07-29T11:16:16.445Z,98313.13
2022-07-29T11:19:14.869Z,98320.69
2022-07-29T11:21:53.786Z,98314.69
2022-07-29T11:24:33.363Z,98319.69
2022-07-29T11:27:14.038Z,98315.53
2022-07-29T11:29:58.707Z,98319.69
2022-07-29T11:32:37.658Z,98316.38
2022-07-29T11:35:37.302Z,98315.75
2022-07-29T11:38:23.786Z,98317.78
2022-07-29T11:41:24.014Z,98308.38
2022-07-29T11:43:55.229Z,98311.22
2022-07-29T11:46:44.153Z,98300.06
2022-07-29T11:49:11.716Z,98305.09
2022-07-29T11:51:56.558Z,98298.97
2022-07-29T11:54:30.035Z,98303.88
2022-07-29T11:56:58.828Z,98294.44
2022-07-29T11:59:33.137Z,98292.44
2022-07-29T12:04:55.929Z,98276.19
2022-07-29T12:07:34.917Z,98272.13
2022-07-29T12:10:03.431Z,98280.25
2022-07-29T12:12:30.114Z,98276.34
2022-07-29T12:14:56.996Z,98277.66
2022-07-29T12:17:26.951Z,98273.94
2022-07-29T12:19:59.334Z,98268.06
2022-07-29T12:22:42.049Z,98284.09
2022-07-29T12:28:05.304Z,98272.13
2022-07-29T12:30:39.795Z,98276.41
2022-07-29T12:33:15.374Z,98270.41
2022-07-29T12:35:47.828Z,98263.47
2022-07-29T12:38:22.172Z,98262.63
2022-07-29T12:40:49.904Z,98262.88
2022-07-29T12:43:20.312Z,98268.63
2022-07-29T12:45:50.161Z,98269.78
2022-07-29T12:48:18.449Z,98265.47
2022-07-29T12:51:02.356Z,98263.56
2022-07-29T12:53:29.855Z,98266.03
2022-07-29T12:55:58.336Z,98266.09
2022-07-29T12:58:30.468Z,98261.56
2022-07-29T13:01:06.264Z,98259.84
2022-07-29T13:03:57.178Z,98264.81
2022-07-29T13:06:45.759Z,98260.38
2022-07-29T13:09:19.795Z,98258.97
2022-07-29T13:11:51.961Z,98254.53
2022-07-29T13:14:44.451Z,98258.00
2022-07-29T13:17:24.208Z,98261.63
2022-07-29T13:20:08.471Z,98263.50
2022-07-29T13:22:35.615Z,98258.53
2022-07-29T13:25:03.592Z,98247.88
2022-07-29T13:27:37.498Z,98258.72
2022-07-29T13:30:06.983Z,98256.03
2022-07-29T13:32:37.553Z,98255.50
2022-07-29T13:35:09.442Z,98249.41
2022-07-29T13:37:39.415Z,98233.25
2022-07-29T13:40:10.723Z,98237.31
2022-07-29T13:42:37.473Z,98229.53
2022-07-29T13:45:05.505Z,98227.84
2022-07-29T13:47:33.287Z,98239.06
2022-07-29T13:50:05.318Z,98234.81
2022-07-29T13:52:33.218Z,98226.19
2022-07-29T13:55:00.035Z,98230.28
2022-07-29T13:57:26.748Z,98227.00
2022-07-29T13:59:54.486Z,98224.53
2022-07-29T14:02:25.570Z,98226.41
2022-07-29T14:04:53.885Z,98218.88
2022-07-29T14:07:21.109Z,98215.44
2022-07-29T14:09:48.211Z,98214.25
2022-07-29T14:12:14.863Z,98216.00
2022-07-29T14:14:42.541Z,98217.31
2022-07-29T14:17:10.128Z,98212.06
2022-07-29T14:19:37.040Z,98216.75
2022-07-29T14:22:05.820Z,98218.91
2022-07-29T14:24:34.006Z,98225.47
2022-07-29T14:27:04.317Z,98219.41
2022-07-29T14:29:35.227Z,98221.53
2022-07-29T14:32:06.446Z,98219.84
2022-07-29T14:34:33.880Z,98215.13
2022-07-29T14:37:00.598Z,98215.97
2022-07-29T14:39:27.132Z,98224.44
2022-07-29T14:41:59.625Z,98216.00
2022-07-29T14:44:32.160Z,98216.16
2022-07-29T14:47:08.026Z,98216.13
2022-07-29T14:49:35.328Z,98214.72
2022-07-29T14:52:02.088Z,98207.19
2022-07-29T14:54:28.620Z,98211.19
2022-07-29T14:56:58.034Z,98209.19
2022-07-29T14:59:25.075Z,98206.00
2022-07-29T15:01:52.005Z,98214.25
2022-07-29T15:04:18.673Z,98206.91
2022-07-29T15:06:45.174Z,98193.59
2022-07-29T15:09:11.766Z,98193.38
2022-07-29T15:11:38.954Z,98200.59
2022-07-29T15:14:06.886Z,98195.84
2022-07-29T15:16:36.615Z,98195.78
2022-07-29T15:19:04.520Z,98203.44
2022-07-29T15:21:31.206Z,98197.41
2022-07-29T15:23:57.813Z,98193.47
2022-07-29T15:26:24.467Z,98191.28
2022-07-29T15:28:50.983Z,98180.94
2022-07-29T15:31:18.219Z,98188.50
2022-07-29T15:33:44.729Z,98184.63
2022-07-29T15:36:25.429Z,98178.13
2022-07-29T15:38:59.708Z,98184.41
2022-07-29T15:41:26.218Z,98178.50
2022-07-29T15:43:52.719Z,98187.75
2022-07-29T15:46:38.905Z,98192.06
2022-07-29T15:49:07.098Z,98196.66
2022-07-29T15:51:34.066Z,98194.44
2022-07-29T15:54:03.478Z,98191.22
2022-07-29T15:56:31.004Z,98190.03
2022-07-29T15:58:58.599Z,98192.53
2022-07-29T16:01:25.269Z,98191.41
2022-07-29T16:03:51.857Z,98183.31
2022-07-29T16:06:18.509Z,98185.31
2022-07-29T16:08:45.050Z,98180.38
2022-07-29T16:11:11.471Z,98184.16
2022-07-29T16:13:37.949Z,98181.69
2022-07-29T16:16:04.851Z,98176.72
2022-07-29T16:18:31.414Z,98179.84
2022-07-29T16:20:58.185Z,98173.09
2022-07-29T16:23:24.878Z,98175.53
2022-07-29T16:25:59.701Z,98177.06
2022-07-29T16:28:27.448Z,98179.31
2022-07-29T16:30:54.045Z,98178.84
2022-07-29T16:33:20.571Z,98180.59
2022-07-29T16:35:47.031Z,98182.19
2022-07-29T16:38:13.558Z,98181.81
2022-07-29T16:40:40.108Z,98178.84
2022-07-29T16:43:06.661Z,98187.63
2022-07-29T16:45:45.087Z,98187.31
2022-07-29T16:48:13.983Z,98184.03
2022-07-29T16:50:41.429Z,98182.31
2022-07-29T16:53:10.805Z,98184.41
2022-07-29T16:55:37.411Z,98191.97
2022-07-29T16:58:04.464Z,98189.44
2022-07-29T17:00:31.384Z,98190.59
2022-07-29T17:03:00.077Z,98187.50
2022-07-29T17:05:29.766Z,98187.50
2022-07-29T17:08:16.734Z,98182.09
2022-07-29T17:10:43.311Z,98174.88
2022-07-29T17:13:09.945Z,98171.94
2022-07-29T17:15:36.644Z,98182.34
2022-07-29T17:18:12.502Z,98184.31
2022-07-29T17:20:40.921Z,98195.09
2022-07-29T17:23:07.693Z,98192.38
2022-07-29T17:25:34.367Z,98193.28
2022-07-29T17:28:01.340Z,98196.13
2022-07-29T17:30:28.709Z,98196.28
2022-07-29T17:32:55.279Z,98200.09
2022-07-29T17:35:40.434Z,98192.75
2022-07-29T17:38:06.904Z,98192.50
2022-07-29T17:40:33.422Z,98190.34
2022-07-29T17:42:59.944Z,98189.34
2022-07-29T17:45:26.441Z,98189.78
2022-07-29T17:48:12.966Z,98191.34
2022-07-29T17:50:39.971Z,98184.66
2022-07-29T17:53:15.672Z,98193.75
2022-07-29T17:55:45.095Z,98193.03
2022-07-29T17:58:12.104Z,98196.00
2022-07-29T18:00:39.112Z,98197.56
2022-07-29T18:03:05.939Z,98191.88
2022-07-29T18:05:32.669Z,98200.25
2022-07-29T18:07:59.155Z,98195.25
2022-07-29T18:10:25.606Z,98201.78
2022-07-29T18:12:52.473Z,98208.56
2022-07-29T18:15:19.071Z,98208.00
2022-07-29T18:17:53.823Z,98210.50
2022-07-29T18:20:24.029Z,98212.19
2022-07-29T18:22:51.176Z,98218.41
2022-07-29T18:25:17.897Z,98214.38
2022-07-29T18:27:44.575Z,98222.59
2022-07-29T18:30:11.231Z,98228.88
2022-07-29T18:32:38.241Z,98241.91
2022-07-29T18:35:05.881Z,98240.13
2022-07-29T18:38:01.240Z,98240.13
2022-07-29T18:40:21.143Z,98238.31
2022-07-29T18:42:47.893Z,98230.97
2022-07-29T18:45:19.698Z,98246.50
2022-07-29T18:47:47.560Z,98240.91
2022-07-29T18:50:14.803Z,98244.84
2022-07-29T18:52:41.937Z,98249.69
2022-07-29T18:55:09.027Z,98247.88
2022-07-29T18:57:56.289Z,98248.00
2022-07-29T19:00:22.763Z,98248.97
2022-07-29T19:02:50.037Z,98256.16
2022-07-29T19:05:16.905Z,98251.03
2022-07-29T19:07:43.556Z,98263.19
2022-07-29T19:10:10.298Z,98261.53
2022-07-29T19:12:37.096Z,98264.41
2022-07-29T19:15:04.065Z,98272.69
2022-07-29T19:17:30.638Z,98269.84
2022-07-29T19:19:57.277Z,98263.47
2022-07-29T19:22:24.138Z,98259.00
2022-07-29T19:24:51.052Z,98279.06
2022-07-29T19:27:17.875Z,98276.59
2022-07-29T19:29:44.701Z,98278.75
2022-07-29T19:32:11.803Z,98286.59
2022-07-29T19:34:38.609Z,98287.38
2022-07-29T19:37:05.477Z,98289.16
2022-07-29T19:39:35.173Z,98301.25
2022-07-29T19:42:03.445Z,98288.72
2022-07-29T19:44:30.395Z,98298.47
2022-07-29T19:46:57.325Z,98306.16
2022-07-29T19:49:24.170Z,98305.50
2022-07-29T19:51:50.729Z,98309.38
2022-07-29T19:54:20.913Z,98294.63
2022-07-29T19:56:47.420Z,98316.00
2022-07-29T19:59:14.526Z,98313.84
2022-07-29T20:01:41.383Z,98315.34
2022-07-29T20:04:08.054Z,98342.28
2022-07-29T20:06:34.915Z,98350.44
2022-07-29T20:09:01.399Z,98365.28
2022-07-29T20:11:29.834Z,98379.28
2022-07-29T20:13:56.507Z,98391.88
2022-07-29T20:16:23.111Z,98396.56
2022-07-29T20:18:51.930Z,98396.47
2022-07-29T20:21:18.495Z,98399.53
2022-07-29T20:23:46.039Z,98406.91
2022-07-29T20:26:12.772Z,98424.22
2022-07-29T20:28:40.350Z,98435.69
2022-07-29T20:31:07.194Z,98448.84
2022-07-29T20:33:33.848Z,98449.16
2022-07-29T20:36:00.474Z,98463.28
2022-07-29T20:38:28.590Z,98462.84
2022-07-29T20:40:58.516Z,98462.91
2022-07-29T20:43:26.203Z,98452.72
2022-07-29T20:45:52.954Z,98458.28
2022-07-29T20:48:19.707Z,98465.19
2022-07-29T20:50:47.695Z,98463.28
2022-07-29T20:53:15.276Z,98459.03
2022-07-29T20:55:42.060Z,98449.00
2022-07-29T20:58:08.796Z,98458.69
2022-07-29T21:00:35.902Z,98452.31
2022-07-29T21:03:02.831Z,98453.94
2022-07-29T21:05:31.619Z,98456.28
2022-07-29T21:07:59.909Z,98452.31
2022-07-29T21:10:26.521Z,98446.31
2022-07-29T21:12:52.986Z,98456.09
2022-07-29T21:15:21.615Z,98456.50
2022-07-29T21:17:48.489Z,98454.53
2022-07-29T21:20:17.053Z,98458.47
2022-07-29T21:22:44.349Z,98451.63
2022-07-29T21:25:12.112Z,98447.16
2022-07-29T21:27:57.115Z,98433.44
2022-07-29T21:30:23.674Z,98433.97
2022-07-29T21:32:50.550Z,98433.75
2022-07-29T21:35:52.109Z,98424.94
2022-07-29T21:38:03.644Z,98423.66
2022-07-29T21:40:30.592Z,98415.41
2022-07-29T21:42:57.166Z,98413.75
2022-07-29T21:45:24.006Z,98407.31
2022-07-29T21:47:50.532Z,98407.16
2022-07-29T21:50:17.058Z,98404.56
2022-07-29T21:52:43.703Z,98396.19
2022-07-29T21:55:10.663Z,98394.63
2022-07-29T21:57:38.229Z,98399.59
2022-07-29T22:00:07.773Z,98393.09
2022-07-29T22:02:34.261Z,98392.31
2022-07-29T22:05:00.742Z,98389.47
2022-07-29T22:07:55.409Z,98385.00
2022-07-29T22:10:13.861Z,98384.66
2022-07-29T22:12:40.435Z,98374.69
2022-07-29T22:15:07.924Z,98374.22
2022-07-29T22:17:34.508Z,98373.09
2022-07-29T22:20:01.214Z,98375.28
2022-07-29T22:22:27.966Z,98372.00
2022-07-29T22:24:55.985Z,98371.00
2022-07-29T22:27:22.822Z,98373.03
2022-07-29T22:29:49.596Z,98371.59
2022-07-29T22:32:16.115Z,98369.31
2022-07-29T22:34:42.579Z,98361.56
2022-07-29T22:37:09.042Z,98357.09
2022-07-29T22:39:35.553Z,98368.34
2022-07-29T22:42:02.060Z,98368.63
2022-07-29T22:44:28.568Z,98370.69
2022-07-29T22:46:55.003Z,98373.16
2022-07-29T22:49:21.580Z,98376.25
2022-07-29T22:51:48.309Z,98388.41
2022-07-29T22:54:15.091Z,98390.16
2022-07-29T22:56:41.532Z,98392.81
2022-07-29T22:59:08.204Z,98393.59
2022-07-29T23:01:37.595Z,98390.16
2022-07-29T23:04:05.199Z,98388.28
2022-07-29T23:06:31.770Z,98392.88
2022-07-29T23:08:58.286Z,98379.34
2022-07-29T23:11:24.872Z,98377.78
2022-07-29T23:13:51.365Z,98378.59
2022-07-29T23:16:26.762Z,98371.56
2022-07-29T23:18:54.237Z,98374.28
2022-07-29T23:21:23.317Z,98374.03
2022-07-29T23:23:49.915Z,98372.13
2022-07-29T23:26:16.857Z,98379.06
2022-07-29T23:28:44.772Z,98382.78
2022-07-29T23:31:11.442Z,98384.66
2022-07-29T23:33:37.897Z,98381.75
2022-07-29T23:36:04.374Z,98381.81
2022-07-29T23:38:30.914Z,98384.34
2022-07-29T23:40:58.640Z,98389.47
2022-07-29T23:43:25.375Z,98389.97
2022-07-29T23:45:51.919Z,98394.25
2022-07-29T23:48:20.860Z,98395.41
2022-07-29T23:50:47.487Z,98400.34
2022-07-29T23:53:14.071Z,98397.69
2022-07-29T23:55:40.810Z,98389.25
2022-07-29T23:58:07.261Z,98393.00
